createdAt,value
2019-06-10T00:00:26.567Z,2.50
2019-06-10T00:01:26.568Z,3.50
2019-06-10T00:02:26.570Z,3.50
2019-06-10T00:03:26.566Z,3.40
2019-06-10T00:04:26.568Z,3.00
2019-06-10T00:05:26.569Z,3.30
2019-06-10T00:06:26.566Z,3.10
2019-06-10T00:07:26.566Z,2.40
2019-06-10T00:08:26.568Z,3.10
2019-06-10T00:09:26.567Z,2.90
2019-06-10T00:10:26.566Z,3.10
2019-06-10T00:11:26.567Z,4.00
2019-06-10T00:12:26.571Z,3.40
2019-06-10T00:13:26.566Z,3.80
2019-06-10T00:14:26.566Z,2.10
2019-06-10T00:15:26.567Z,3.40
2019-06-10T00:16:26.566Z,3.70
2019-06-10T00:17:26.570Z,2.40
2019-06-10T00:18:40.721Z,3.30
2019-06-10T00:19:26.566Z,4.20
2019-06-10T00:20:26.573Z,4.40
2019-06-10T00:21:26.567Z,4.00
2019-06-10T00:22:26.567Z,2.60
2019-06-10T00:23:26.567Z,4.30
2019-06-10T00:24:26.565Z,3.30
2019-06-10T00:25:26.568Z,3.10
2019-06-10T00:26:26.568Z,4.40
2019-06-10T00:27:26.567Z,2.40
2019-06-10T00:28:26.568Z,3.40
2019-06-10T00:29:26.569Z,2.80
2019-06-10T00:30:26.567Z,4.30
2019-06-10T00:31:26.568Z,2.50
2019-06-10T00:32:26.567Z,3.20
2019-06-10T00:33:26.570Z,3.60
2019-06-10T00:34:26.567Z,2.90
2019-06-10T00:35:26.581Z,2.50
2019-06-10T00:36:26.568Z,3.00
2019-06-10T00:37:26.569Z,3.70
2019-06-10T00:38:26.568Z,4.10
2019-06-10T00:39:26.569Z,2.10
2019-06-10T00:40:26.572Z,2.20
2019-06-10T00:41:26.570Z,3.10
2019-06-10T00:42:26.571Z,3.10
2019-06-10T00:43:26.569Z,2.70
2019-06-10T00:44:26.569Z,3.40
2019-06-10T00:45:26.571Z,4.90
2019-06-10T00:46:26.569Z,2.80
2019-06-10T00:47:26.571Z,4.10
2019-06-10T00:48:29.331Z,3.30
2019-06-10T00:49:26.568Z,4.10
2019-06-10T00:50:26.571Z,2.20
2019-06-10T00:51:26.570Z,2.40
2019-06-10T00:52:26.571Z,2.30
2019-06-10T00:53:26.570Z,3.60
2019-06-10T00:54:26.571Z,3.50
2019-06-10T00:55:26.573Z,4.40
2019-06-10T00:56:26.571Z,3.90
2019-06-10T00:57:26.577Z,3.50
2019-06-10T00:58:26.572Z,2.50
2019-06-10T00:59:26.574Z,3.50
2019-06-10T01:00:26.573Z,3.80
2019-06-10T01:01:26.572Z,3.00
2019-06-10T01:02:26.575Z,2.50
2019-06-10T01:03:26.573Z,3.60
2019-06-10T01:04:26.575Z,3.60
2019-06-10T01:05:26.574Z,2.80
2019-06-10T01:06:26.580Z,3.60
2019-06-10T01:07:26.574Z,4.10
2019-06-10T01:08:26.573Z,2.70
2019-06-10T01:09:26.573Z,3.30
2019-06-10T01:10:26.572Z,2.60
2019-06-10T01:11:27.285Z,3.10
2019-06-10T01:12:26.575Z,3.70
2019-06-10T01:13:26.574Z,4.20
2019-06-10T01:14:26.573Z,4.20
2019-06-10T01:15:26.574Z,4.60
2019-06-10T01:16:26.573Z,4.60
2019-06-10T01:17:26.572Z,2.60
2019-06-10T01:18:35.656Z,4.30
2019-06-10T01:19:26.573Z,3.20
2019-06-10T01:20:26.570Z,4.40
2019-06-10T01:21:26.578Z,2.40
2019-06-10T01:22:26.574Z,3.70
2019-06-10T01:23:26.574Z,4.00
2019-06-10T01:24:26.572Z,4.00
2019-06-10T01:25:26.574Z,3.20
2019-06-10T01:26:26.571Z,4.80
2019-06-10T01:27:26.573Z,4.20
2019-06-10T01:28:26.572Z,3.20
2019-06-10T01:29:26.573Z,2.50
2019-06-10T01:30:27.279Z,2.60
2019-06-10T01:31:26.575Z,3.90
2019-06-10T01:32:26.612Z,2.60
2019-06-10T01:33:26.574Z,3.80
2019-06-10T01:34:26.570Z,2.90
2019-06-10T01:35:26.570Z,4.90
2019-06-10T01:36:26.571Z,3.60
2019-06-10T01:37:26.571Z,4.60
2019-06-10T01:38:26.570Z,4.20
2019-06-10T01:39:26.569Z,3.10
2019-06-10T01:40:26.576Z,2.50
2019-06-10T01:41:26.570Z,4.70
2019-06-10T01:42:26.570Z,3.90
2019-06-10T01:43:26.571Z,3.00
2019-06-10T01:44:26.569Z,3.10
2019-06-10T01:45:26.570Z,4.10
2019-06-10T01:46:26.567Z,3.90
2019-06-10T01:47:26.570Z,3.40
2019-06-10T01:48:40.446Z,2.60
2019-06-10T01:49:26.570Z,3.50
2019-06-10T01:50:26.569Z,2.90
2019-06-10T01:51:26.569Z,3.50
2019-06-10T01:52:26.570Z,3.40
2019-06-10T01:53:26.568Z,2.60
2019-06-10T01:54:26.574Z,4.60
2019-06-10T01:55:26.567Z,3.80
2019-06-10T01:56:26.578Z,3.70
2019-06-10T01:57:26.568Z,2.80
2019-06-10T01:58:26.567Z,2.80
2019-06-10T01:59:26.568Z,3.40
2019-06-10T02:00:26.567Z,5.70
2019-06-10T02:01:26.571Z,4.40
2019-06-10T02:02:26.565Z,3.20
2019-06-10T02:03:26.573Z,3.60
2019-06-10T02:04:26.575Z,3.40
2019-06-10T02:05:26.568Z,4.80
2019-06-10T02:06:26.565Z,3.00
2019-06-10T02:07:26.565Z,4.50
2019-06-10T02:08:26.568Z,3.60
2019-06-10T02:09:26.567Z,3.60
2019-06-10T02:10:26.565Z,4.50
2019-06-10T02:11:26.565Z,3.20
2019-06-10T02:12:26.569Z,4.40
2019-06-10T02:13:26.566Z,3.30
2019-06-10T02:14:26.567Z,2.90
2019-06-10T02:15:26.571Z,3.90
2019-06-10T02:16:26.567Z,3.90
2019-06-10T02:17:26.567Z,3.00
2019-06-10T02:18:26.565Z,2.90
2019-06-10T02:19:26.564Z,3.00
2019-06-10T02:20:26.566Z,3.50
2019-06-10T02:21:26.565Z,3.90
2019-06-10T02:22:26.564Z,5.90
2019-06-10T02:23:26.565Z,3.40
2019-06-10T02:24:26.565Z,2.70
2019-06-10T02:25:26.565Z,3.70
2019-06-10T02:26:26.563Z,4.90
2019-06-10T02:27:26.565Z,3.80
2019-06-10T02:28:26.566Z,3.10
2019-06-10T02:29:26.564Z,4.70
2019-06-10T02:30:40.306Z,3.10
2019-06-10T02:31:30.369Z,3.40
2019-06-10T02:32:32.995Z,3.20
2019-06-10T02:33:30.782Z,6.00
2019-06-10T02:34:27.699Z,4.00
2019-06-10T02:35:38.689Z,3.40
2019-06-10T02:36:31.114Z,3.40
2019-06-10T02:37:32.504Z,4.10
2019-06-10T02:38:33.714Z,3.30
2019-06-10T02:39:33.901Z,3.70
2019-06-10T02:40:32.067Z,3.70
2019-06-10T02:41:31.822Z,3.00
2019-06-10T02:42:30.653Z,3.50
2019-06-10T02:43:32.023Z,4.40
2019-06-10T02:44:32.579Z,3.10
2019-06-10T02:45:33.721Z,3.60
2019-06-10T02:46:31.077Z,4.20
2019-06-10T02:47:36.214Z,4.10
2019-06-10T02:48:30.264Z,5.50
2019-06-10T02:49:46.512Z,4.40
2019-06-10T02:50:32.544Z,4.30
2019-06-10T02:51:30.697Z,5.30
2019-06-10T02:52:32.640Z,5.40
2019-06-10T02:53:30.844Z,5.70
2019-06-10T02:54:31.546Z,6.30
2019-06-10T02:55:30.921Z,9.40
2019-06-10T02:56:30.711Z,5.70
2019-06-10T02:57:34.999Z,7.40
2019-06-10T02:58:31.480Z,5.20
2019-06-10T02:59:31.011Z,4.70
2019-06-10T03:00:36.971Z,5.30
2019-06-10T03:01:32.117Z,5.50
2019-06-10T03:02:31.919Z,6.00
2019-06-10T03:03:37.319Z,5.20
2019-06-10T03:04:31.321Z,7.20
2019-06-10T03:05:32.929Z,8.30
2019-06-10T03:06:33.325Z,11.40
2019-06-10T03:07:29.328Z,17.50
2019-06-10T03:08:29.595Z,13.00
2019-06-10T03:09:31.385Z,9.50
2019-06-10T03:10:32.420Z,9.20
2019-06-10T03:11:30.611Z,8.30
2019-06-10T03:12:26.542Z,8.20
2019-06-10T03:13:26.539Z,7.70
2019-06-10T03:14:26.538Z,7.40
2019-06-10T03:15:26.879Z,8.00
2019-06-10T03:16:26.543Z,8.30
2019-06-10T03:17:26.533Z,10.60
2019-06-10T03:18:26.535Z,7.10
2019-06-10T03:19:41.861Z,8.00
2019-06-10T03:20:26.536Z,7.10
2019-06-10T03:21:26.535Z,6.50
2019-06-10T03:22:26.530Z,6.40
2019-06-10T03:23:27.887Z,6.30
2019-06-10T03:24:27.504Z,8.50
2019-06-10T03:25:27.699Z,6.20
2019-06-10T03:26:27.600Z,5.30
2019-06-10T03:27:27.877Z,6.80
2019-06-10T03:28:27.741Z,4.90
2019-06-10T03:29:27.867Z,5.90
2019-06-10T03:30:44.201Z,5.20
2019-06-10T03:31:33.899Z,7.40
2019-06-10T03:32:33.136Z,8.60
2019-06-10T03:33:34.559Z,5.40
2019-06-10T03:34:33.678Z,6.80
2019-06-10T03:35:28.179Z,6.00
2019-06-10T03:36:27.301Z,5.30
2019-06-10T03:37:27.684Z,6.00
2019-06-10T03:38:28.104Z,5.70
2019-06-10T03:39:28.209Z,6.40
2019-06-10T03:40:27.740Z,6.90
2019-06-10T03:41:27.929Z,7.10
2019-06-10T03:42:28.069Z,6.80
2019-06-10T03:43:27.847Z,7.20
2019-06-10T03:44:27.097Z,5.10
2019-06-10T03:45:28.070Z,5.60
2019-06-10T03:46:27.280Z,5.70
2019-06-10T03:47:27.515Z,8.60
2019-06-10T03:48:27.140Z,6.20
2019-06-10T03:49:27.497Z,6.50
2019-06-10T03:50:27.473Z,6.40
2019-06-10T03:51:27.391Z,6.80
2019-06-10T03:52:27.226Z,8.30
2019-06-10T03:53:27.317Z,6.10
2019-06-10T03:54:29.288Z,6.50
2019-06-10T03:55:27.991Z,7.80
2019-06-10T03:56:26.973Z,7.30
2019-06-10T03:57:27.294Z,6.20
2019-06-10T03:58:28.008Z,6.70
2019-06-10T03:59:28.080Z,7.80
2019-06-10T04:00:27.605Z,9.10
2019-06-10T04:01:28.674Z,9.40
2019-06-10T04:02:27.236Z,7.90
2019-06-10T04:03:28.090Z,8.70
2019-06-10T04:04:27.127Z,9.20
2019-06-10T04:05:27.396Z,7.90
2019-06-10T04:06:27.701Z,7.60
2019-06-10T04:07:29.617Z,9.20
2019-06-10T04:08:26.879Z,8.00
2019-06-10T04:09:27.498Z,8.40
2019-06-10T04:10:28.187Z,7.60
2019-06-10T04:11:27.387Z,8.30
2019-06-10T04:12:27.844Z,8.50
2019-06-10T04:13:27.273Z,8.20
2019-06-10T04:14:27.099Z,8.60
2019-06-10T04:15:28.313Z,8.90
2019-06-10T04:16:27.153Z,7.80
2019-06-10T04:17:27.357Z,7.10
2019-06-10T04:18:28.175Z,7.60
2019-06-10T04:19:27.455Z,8.40
2019-06-10T04:20:28.343Z,7.80
2019-06-10T04:21:27.261Z,7.70
2019-06-10T04:22:26.862Z,7.90
2019-06-10T04:23:27.264Z,7.30
2019-06-10T04:24:27.308Z,7.50
2019-06-10T04:25:29.179Z,9.00
2019-06-10T04:26:28.184Z,7.70
2019-06-10T04:27:27.152Z,8.20
2019-06-10T04:28:27.615Z,7.90
2019-06-10T04:29:27.710Z,7.80
2019-06-10T04:30:27.600Z,9.10
2019-06-10T04:31:27.712Z,7.10
2019-06-10T04:32:27.787Z,7.20
2019-06-10T04:33:27.648Z,7.00
2019-06-10T04:34:29.066Z,7.00
2019-06-10T04:35:27.636Z,8.10
2019-06-10T04:36:27.788Z,8.50
2019-06-10T04:37:27.747Z,7.40
2019-06-10T04:38:27.597Z,8.20
2019-06-10T04:39:27.667Z,6.90
2019-06-10T04:40:27.797Z,7.60
2019-06-10T04:41:27.756Z,7.20
2019-06-10T04:42:27.353Z,7.90
2019-06-10T04:43:27.735Z,6.90
2019-06-10T04:44:27.791Z,8.00
2019-06-10T04:45:27.720Z,7.40
2019-06-10T04:46:27.806Z,6.90
2019-06-10T04:47:27.679Z,8.20
2019-06-10T04:48:27.702Z,6.60
2019-06-10T04:49:27.074Z,7.70
2019-06-10T04:50:35.055Z,8.20
2019-06-10T04:51:26.902Z,6.20
2019-06-10T04:52:28.045Z,6.90
2019-06-10T04:53:27.942Z,6.40
2019-06-10T04:54:27.035Z,7.20
2019-06-10T04:55:27.697Z,7.40
2019-06-10T04:56:27.820Z,8.50
2019-06-10T04:57:26.917Z,8.10
2019-06-10T04:58:27.573Z,7.40
2019-06-10T04:59:28.536Z,6.70
2019-06-10T05:00:27.605Z,6.50
2019-06-10T05:01:27.449Z,7.10
2019-06-10T05:02:27.222Z,7.40
2019-06-10T05:03:27.812Z,6.90
2019-06-10T05:04:27.134Z,6.40
2019-06-10T05:05:27.290Z,6.70
2019-06-10T05:06:27.263Z,7.70
2019-06-10T05:07:27.970Z,7.00
2019-06-10T05:08:26.950Z,7.90
2019-06-10T05:09:27.932Z,7.20
2019-06-10T05:10:27.058Z,9.90
2019-06-10T05:11:27.367Z,7.40
2019-06-10T05:12:27.654Z,8.50
2019-06-10T05:13:27.045Z,7.70
2019-06-10T05:14:28.542Z,7.80
2019-06-10T05:15:28.444Z,8.10
2019-06-10T05:16:28.884Z,7.90
2019-06-10T05:17:27.966Z,9.20
2019-06-10T05:18:27.623Z,8.10
2019-06-10T05:19:27.546Z,9.00
2019-06-10T05:20:44.491Z,9.60
2019-06-10T05:21:28.288Z,8.70
2019-06-10T05:22:27.250Z,8.00
2019-06-10T05:23:26.469Z,8.00
2019-06-10T05:24:28.483Z,9.30
2019-06-10T05:25:27.229Z,8.60
2019-06-10T05:26:27.649Z,8.90
2019-06-10T05:27:27.053Z,8.70
2019-06-10T05:28:27.494Z,8.70
2019-06-10T05:29:27.789Z,8.40
2019-06-10T05:30:27.793Z,8.30
2019-06-10T05:31:28.574Z,10.70
2019-06-10T05:32:27.851Z,9.50
2019-06-10T05:33:27.159Z,9.40
2019-06-10T05:34:27.215Z,8.40
2019-06-10T05:35:26.955Z,8.60
2019-06-10T05:36:28.689Z,8.10
2019-06-10T05:37:26.752Z,9.20
2019-06-10T05:38:27.526Z,8.20
2019-06-10T05:39:27.624Z,8.10
2019-06-10T05:40:27.603Z,8.70
2019-06-10T05:41:27.900Z,8.10
2019-06-10T05:42:27.850Z,8.50
2019-06-10T05:43:26.714Z,8.90
2019-06-10T05:44:28.054Z,8.30
2019-06-10T05:45:27.534Z,8.80
2019-06-10T05:46:27.260Z,9.40
2019-06-10T05:47:28.337Z,9.90
2019-06-10T05:48:26.721Z,9.30
2019-06-10T05:49:27.471Z,9.20
2019-06-10T05:50:26.788Z,8.50
2019-06-10T05:51:27.386Z,8.70
2019-06-10T05:52:27.551Z,9.60
2019-06-10T05:53:27.631Z,8.70
2019-06-10T05:54:27.518Z,9.00
2019-06-10T05:55:27.082Z,9.40
2019-06-10T05:56:27.179Z,9.00
2019-06-10T05:57:27.362Z,9.70
2019-06-10T05:58:27.736Z,9.00
2019-06-10T05:59:27.312Z,9.10
2019-06-10T06:00:27.502Z,8.90
2019-06-10T06:01:27.498Z,8.70
2019-06-10T06:02:26.265Z,8.80
2019-06-10T06:03:26.266Z,9.40
2019-06-10T06:04:26.385Z,9.10
2019-06-10T06:05:26.261Z,9.20
2019-06-10T06:06:27.072Z,8.80
2019-06-10T06:07:27.032Z,8.90
2019-06-10T06:08:27.088Z,9.80
2019-06-10T06:09:27.140Z,9.70
2019-06-10T06:10:27.260Z,9.30
2019-06-10T06:11:27.345Z,8.70
2019-06-10T06:12:27.368Z,8.80
2019-06-10T06:13:27.381Z,8.80
2019-06-10T06:14:27.477Z,9.20
2019-06-10T06:15:27.394Z,9.00
2019-06-10T06:16:26.242Z,9.00
2019-06-10T06:17:26.241Z,8.70
2019-06-10T06:18:26.237Z,7.90
2019-06-10T06:19:26.245Z,8.40
2019-06-10T06:20:27.036Z,8.40
2019-06-10T06:21:31.474Z,9.80
2019-06-10T06:22:27.195Z,8.30
2019-06-10T06:23:26.909Z,8.60
2019-06-10T06:24:27.469Z,8.40
2019-06-10T06:25:27.617Z,10.20
2019-06-10T06:26:26.492Z,9.00
2019-06-10T06:27:26.736Z,8.20
2019-06-10T06:28:26.219Z,8.10
2019-06-10T06:29:26.934Z,8.30
2019-06-10T06:30:26.216Z,8.60
2019-06-10T06:31:26.235Z,9.20
2019-06-10T06:32:26.285Z,9.10
2019-06-10T06:33:27.315Z,9.20
2019-06-10T06:34:26.843Z,8.80
2019-06-10T06:35:26.415Z,8.20
2019-06-10T06:36:26.627Z,11.30
2019-06-10T06:37:26.878Z,8.80
2019-06-10T06:38:26.872Z,8.70
2019-06-10T06:39:27.021Z,8.90
2019-06-10T06:40:27.165Z,7.90
2019-06-10T06:41:27.366Z,8.10
2019-06-10T06:42:27.199Z,7.90
2019-06-10T06:43:28.923Z,8.70
2019-06-10T06:44:27.485Z,8.20
2019-06-10T06:45:27.349Z,8.20
2019-06-10T06:46:27.398Z,9.50
2019-06-10T06:47:26.186Z,8.10
2019-06-10T06:48:26.188Z,7.90
2019-06-10T06:49:26.189Z,7.70
2019-06-10T06:50:26.180Z,7.30
2019-06-10T06:51:42.445Z,7.90
2019-06-10T06:52:59.822Z,7.70
2019-06-10T06:53:33.197Z,7.50
2019-06-10T06:54:26.187Z,7.50
2019-06-10T06:55:26.177Z,7.40
2019-06-10T06:56:26.174Z,7.40
2019-06-10T06:57:26.176Z,8.60
2019-06-10T06:58:26.176Z,7.50
2019-06-10T06:59:26.169Z,7.10
2019-06-10T07:00:42.657Z,7.00
2019-06-10T07:01:26.168Z,7.60
2019-06-10T07:02:26.169Z,7.20
2019-06-10T07:03:26.168Z,7.50
2019-06-10T07:04:26.166Z,8.10
2019-06-10T07:05:26.166Z,8.30
2019-06-10T07:06:26.162Z,7.60
2019-06-10T07:07:26.161Z,7.20
2019-06-10T07:08:26.162Z,9.00
2019-06-10T07:09:26.164Z,7.10
2019-06-10T07:10:26.167Z,7.40
2019-06-10T07:11:26.161Z,7.70
2019-06-10T07:12:26.156Z,7.40
2019-06-10T07:13:26.156Z,6.90
2019-06-10T07:14:26.153Z,6.80
2019-06-10T07:15:26.156Z,6.50
2019-06-10T07:16:26.156Z,5.80
2019-06-10T07:17:26.152Z,6.30
2019-06-10T07:18:26.154Z,6.50
2019-06-10T07:19:26.150Z,7.40
2019-06-10T07:20:26.151Z,6.50
2019-06-10T07:21:26.152Z,6.40
2019-06-10T07:22:26.150Z,5.90
2019-06-10T07:23:26.152Z,6.30
2019-06-10T07:24:26.155Z,6.90
2019-06-10T07:25:26.157Z,6.20
2019-06-10T07:26:26.149Z,6.40
2019-06-10T07:27:26.150Z,7.30
2019-06-10T07:28:26.151Z,6.10
2019-06-10T07:29:26.152Z,7.70
2019-06-10T07:30:26.151Z,6.20
2019-06-10T07:31:27.895Z,6.30
2019-06-10T07:32:26.151Z,6.20
2019-06-10T07:33:26.153Z,6.30
2019-06-10T07:34:26.149Z,5.70
2019-06-10T07:35:26.153Z,6.30
2019-06-10T07:36:26.151Z,5.90
2019-06-10T07:37:26.149Z,5.90
2019-06-10T07:38:26.428Z,6.70
2019-06-10T07:39:26.151Z,5.60
2019-06-10T07:40:26.149Z,5.80
2019-06-10T07:41:26.154Z,6.10
2019-06-10T07:42:26.151Z,6.90
2019-06-10T07:43:26.155Z,6.30
2019-06-10T07:44:26.152Z,5.70
2019-06-10T07:45:26.151Z,6.10
2019-06-10T07:46:26.150Z,7.80
2019-06-10T07:47:26.150Z,5.80
2019-06-10T07:48:26.149Z,5.60
2019-06-10T07:49:26.158Z,5.70
2019-06-10T07:50:26.150Z,6.00
2019-06-10T07:51:26.150Z,6.00
2019-06-10T07:52:26.155Z,6.80
2019-06-10T07:53:26.149Z,6.90
2019-06-10T07:54:26.149Z,5.80
2019-06-10T07:55:26.180Z,5.90
2019-06-10T07:56:29.267Z,6.00
2019-06-10T07:57:26.149Z,6.00
2019-06-10T07:58:26.150Z,6.00
2019-06-10T07:59:26.156Z,6.10
2019-06-10T08:00:26.149Z,6.00
2019-06-10T08:01:26.157Z,7.00
2019-06-10T08:02:26.148Z,6.80
2019-06-10T08:03:26.147Z,6.10
2019-06-10T08:04:26.150Z,6.20
2019-06-10T08:05:26.150Z,6.10
2019-06-10T08:06:26.146Z,7.20
2019-06-10T08:07:26.148Z,6.80
2019-06-10T08:08:26.143Z,6.00
2019-06-10T08:09:26.150Z,7.20
2019-06-10T08:10:26.146Z,5.80
2019-06-10T08:11:26.149Z,6.30
2019-06-10T08:12:26.146Z,5.70
2019-06-10T08:13:26.147Z,7.50
2019-06-10T08:14:26.153Z,6.20
2019-06-10T08:15:26.148Z,7.10
2019-06-10T08:16:26.145Z,6.70
2019-06-10T08:17:26.148Z,5.60
2019-06-10T08:18:26.147Z,6.80
2019-06-10T08:19:34.832Z,8.10
2019-06-10T08:20:26.146Z,6.00
2019-06-10T08:21:26.147Z,5.60
2019-06-10T08:22:33.968Z,7.70
2019-06-10T08:23:26.147Z,5.90
2019-06-10T08:24:26.150Z,6.30
2019-06-10T08:25:26.150Z,5.60
2019-06-10T08:26:26.148Z,5.40
2019-06-10T08:27:26.149Z,8.00
2019-06-10T08:28:26.152Z,5.50
2019-06-10T08:29:26.150Z,8.00
2019-06-10T08:30:27.609Z,5.80
2019-06-10T08:31:26.151Z,5.20
2019-06-10T08:32:26.156Z,6.20
2019-06-10T08:33:26.155Z,7.70
2019-06-10T08:34:26.158Z,5.00
2019-06-10T08:35:38.316Z,6.70
2019-06-10T08:36:26.160Z,5.30
2019-06-10T08:37:26.158Z,5.30
2019-06-10T08:38:26.161Z,5.30
2019-06-10T08:39:26.157Z,5.90
2019-06-10T08:40:26.163Z,6.80
2019-06-10T08:41:26.163Z,5.90
2019-06-10T08:42:26.169Z,5.30
2019-06-10T08:43:26.165Z,5.30
2019-06-10T08:44:26.166Z,6.00
2019-06-10T08:45:26.168Z,6.60
2019-06-10T08:46:26.168Z,5.50
2019-06-10T08:47:26.172Z,6.30
2019-06-10T08:48:26.172Z,5.00
2019-06-10T08:49:26.172Z,5.30
2019-06-10T08:50:26.175Z,5.30
2019-06-10T08:51:26.183Z,5.70
2019-06-10T08:52:26.187Z,5.20
2019-06-10T08:53:26.183Z,5.20
2019-06-10T08:54:26.192Z,5.40
2019-06-10T08:55:26.183Z,5.80
2019-06-10T08:56:26.185Z,5.80
2019-06-10T08:57:26.187Z,5.20
2019-06-10T08:58:26.188Z,5.10
2019-06-10T08:59:26.192Z,4.90
2019-06-10T09:00:26.199Z,6.80
2019-06-10T09:01:26.192Z,5.00
2019-06-10T09:02:26.196Z,5.20
2019-06-10T09:03:26.293Z,6.90
2019-06-10T09:04:29.346Z,5.00
2019-06-10T09:05:26.199Z,5.90
2019-06-10T09:06:26.199Z,6.80
2019-06-10T09:07:26.203Z,4.80
2019-06-10T09:08:26.205Z,6.20
2019-06-10T09:09:26.209Z,5.00
2019-06-10T09:10:26.208Z,5.40
2019-06-10T09:11:26.573Z,5.50
2019-06-10T09:12:33.004Z,7.20
2019-06-10T09:13:26.216Z,5.40
2019-06-10T09:14:26.223Z,6.80
2019-06-10T09:15:26.218Z,5.30
2019-06-10T09:16:26.220Z,5.10
2019-06-10T09:17:26.221Z,7.10
2019-06-10T09:18:26.220Z,7.60
2019-06-10T09:19:26.226Z,5.20
2019-06-10T09:20:26.231Z,4.80
2019-06-10T09:21:26.232Z,5.00
2019-06-10T09:22:26.233Z,5.60
2019-06-10T09:23:26.247Z,5.00
2019-06-10T09:24:26.236Z,5.00
2019-06-10T09:25:26.268Z,5.40
2019-06-10T09:26:26.241Z,5.80
2019-06-10T09:27:27.109Z,5.20
2019-06-10T09:28:27.042Z,5.60
2019-06-10T09:29:26.248Z,5.20
2019-06-10T09:30:26.249Z,5.30
2019-06-10T09:31:26.251Z,5.50
2019-06-10T09:32:26.252Z,5.10
2019-06-10T09:33:26.261Z,5.80
2019-06-10T09:34:26.256Z,7.20
2019-06-10T09:35:26.260Z,6.10
2019-06-10T09:36:26.262Z,5.20
2019-06-10T09:37:26.263Z,5.80
2019-06-10T09:38:26.267Z,5.00
2019-06-10T09:39:26.273Z,5.00
2019-06-10T09:40:26.274Z,4.90
2019-06-10T09:41:36.558Z,5.00
2019-06-10T09:42:26.275Z,6.80
2019-06-10T09:43:26.279Z,5.90
2019-06-10T09:44:26.281Z,5.50
2019-06-10T09:45:26.287Z,6.10
2019-06-10T09:46:26.283Z,7.20
2019-06-10T09:47:26.290Z,4.90
2019-06-10T09:48:26.290Z,4.90
2019-06-10T09:49:26.296Z,4.90
2019-06-10T09:50:26.297Z,5.10
2019-06-10T09:51:26.323Z,4.80
2019-06-10T09:52:26.301Z,4.70
2019-06-10T09:53:38.866Z,7.00
2019-06-10T09:54:26.307Z,5.90
2019-06-10T09:55:26.308Z,8.60
2019-06-10T09:56:26.313Z,6.20
2019-06-10T09:57:26.313Z,5.70
2019-06-10T09:58:26.317Z,4.90
2019-06-10T09:59:26.321Z,6.40
2019-06-10T10:00:29.125Z,5.40
2019-06-10T10:01:26.328Z,8.60
2019-06-10T10:02:26.327Z,7.00
2019-06-10T10:03:26.337Z,4.90
2019-06-10T10:04:26.338Z,5.10
2019-06-10T10:05:26.338Z,5.20
2019-06-10T10:06:26.342Z,6.00
2019-06-10T10:07:26.345Z,5.90
2019-06-10T10:08:26.356Z,6.20
2019-06-10T10:09:26.348Z,5.10
2019-06-10T10:10:26.351Z,5.00
2019-06-10T10:11:28.603Z,5.90
2019-06-10T10:12:26.355Z,6.80
2019-06-10T10:13:26.728Z,5.20
2019-06-10T10:14:26.363Z,4.80
2019-06-10T10:15:30.930Z,6.60
2019-06-10T10:16:26.368Z,4.70
2019-06-10T10:17:26.375Z,5.00
2019-06-10T10:18:26.373Z,5.00
2019-06-10T10:19:26.381Z,4.90
2019-06-10T10:20:26.406Z,4.90
2019-06-10T10:21:26.390Z,4.90
2019-06-10T10:22:26.386Z,5.10
2019-06-10T10:23:26.398Z,5.60
2019-06-10T10:24:26.401Z,4.60
2019-06-10T10:25:26.396Z,5.40
2019-06-10T10:26:26.401Z,4.90
2019-06-10T10:27:26.404Z,4.50
2019-06-10T10:28:26.604Z,5.10
2019-06-10T10:29:26.410Z,5.60
2019-06-10T10:30:26.414Z,4.70
2019-06-10T10:31:26.418Z,4.80
2019-06-10T10:32:26.422Z,4.90
2019-06-10T10:33:29.902Z,4.90
2019-06-10T10:34:26.435Z,5.00
2019-06-10T10:35:26.433Z,5.50
2019-06-10T10:36:26.435Z,7.00
2019-06-10T10:37:26.439Z,5.60
2019-06-10T10:38:26.443Z,5.30
2019-06-10T10:39:27.035Z,5.90
2019-06-10T10:40:26.452Z,6.00
2019-06-10T10:41:26.455Z,5.10
2019-06-10T10:42:39.131Z,5.00
2019-06-10T10:43:33.238Z,6.00
2019-06-10T10:44:26.465Z,5.00
2019-06-10T10:45:26.467Z,4.50
2019-06-10T10:46:26.654Z,5.40
2019-06-10T10:47:27.664Z,5.30
2019-06-10T10:48:26.480Z,5.30
2019-06-10T10:49:26.484Z,6.00
2019-06-10T10:50:26.487Z,5.10
2019-06-10T10:51:26.491Z,4.70
2019-06-10T10:52:26.566Z,6.30
2019-06-10T10:53:26.497Z,5.00
2019-06-10T10:54:34.087Z,4.80
2019-06-10T10:55:26.505Z,4.80
2019-06-10T10:56:26.866Z,5.70
2019-06-10T10:57:26.514Z,5.30
2019-06-10T10:58:26.515Z,6.60
2019-06-10T10:59:26.518Z,5.30
2019-06-10T11:00:26.523Z,7.00
2019-06-10T11:01:26.566Z,6.40
2019-06-10T11:02:26.876Z,4.80
2019-06-10T11:03:26.537Z,6.50
2019-06-10T11:04:26.539Z,6.10
2019-06-10T11:05:26.544Z,4.90
2019-06-10T11:06:26.549Z,5.70
2019-06-10T11:07:26.549Z,5.00
2019-06-10T11:08:26.567Z,6.70
2019-06-10T11:09:26.561Z,5.50
2019-06-10T11:10:26.562Z,5.20
2019-06-10T11:11:26.575Z,5.00
2019-06-10T11:12:26.585Z,5.50
2019-06-10T11:13:26.573Z,4.90
2019-06-10T11:14:26.610Z,5.20
2019-06-10T11:15:26.584Z,4.80
2019-06-10T11:16:26.587Z,5.00
2019-06-10T11:17:26.593Z,5.40
2019-06-10T11:18:26.594Z,6.00
2019-06-10T11:19:26.606Z,5.00
2019-06-10T11:20:26.602Z,5.20
2019-06-10T11:21:26.608Z,4.60
2019-06-10T11:22:26.612Z,4.50
2019-06-10T11:23:26.616Z,4.80
2019-06-10T11:24:36.452Z,5.00
2019-06-10T11:25:26.628Z,5.80
2019-06-10T11:26:27.021Z,5.10
2019-06-10T11:27:26.635Z,5.40
2019-06-10T11:28:26.636Z,5.10
2019-06-10T11:29:26.643Z,5.80
2019-06-10T11:30:26.645Z,4.80
2019-06-10T11:31:27.119Z,5.10
2019-06-10T11:32:26.654Z,4.90
2019-06-10T11:33:26.659Z,5.80
2019-06-10T11:34:26.663Z,5.60
2019-06-10T11:35:26.668Z,5.10
2019-06-10T11:36:26.678Z,6.00
2019-06-10T11:37:26.690Z,7.30
2019-06-10T11:38:26.680Z,5.50
2019-06-10T11:39:26.694Z,5.40
2019-06-10T11:40:26.688Z,7.40
2019-06-10T11:41:26.695Z,6.30
2019-06-10T11:42:26.698Z,4.80
2019-06-10T11:43:26.727Z,5.00
2019-06-10T11:44:26.711Z,6.00
2019-06-10T11:45:26.719Z,6.10
2019-06-10T11:46:26.718Z,5.60
2019-06-10T11:47:26.724Z,5.70
2019-06-10T11:48:26.729Z,6.40
2019-06-10T11:49:26.735Z,5.20
2019-06-10T11:50:26.736Z,5.70
2019-06-10T11:51:26.739Z,6.90
2019-06-10T11:52:26.751Z,5.80
2019-06-10T11:53:28.810Z,8.10
2019-06-10T11:54:26.761Z,5.90
2019-06-10T11:55:26.761Z,5.60
2019-06-10T11:56:26.763Z,7.40
2019-06-10T11:57:26.768Z,6.00
2019-06-10T11:58:26.770Z,5.70
2019-06-10T11:59:26.795Z,7.30
2019-06-10T12:00:26.780Z,6.10
2019-06-10T12:01:26.782Z,5.30
2019-06-10T12:02:27.182Z,5.70
2019-06-10T12:03:26.794Z,6.00
2019-06-10T12:04:26.804Z,5.90
2019-06-10T12:05:26.801Z,6.10
2019-06-10T12:06:26.806Z,5.20
2019-06-10T12:07:26.820Z,5.20
2019-06-10T12:08:26.813Z,5.90
2019-06-10T12:09:26.825Z,5.40
2019-06-10T12:10:26.820Z,5.50
2019-06-10T12:11:26.827Z,5.60
2019-06-10T12:12:26.834Z,5.60
2019-06-10T12:13:26.835Z,5.60
2019-06-10T12:14:27.305Z,6.80
2019-06-10T12:15:26.845Z,5.20
2019-06-10T12:17:40.425Z,7.20
2019-06-10T12:17:41.557Z,5.50
2019-06-10T12:18:26.857Z,6.50
2019-06-10T12:19:26.862Z,6.00
2019-06-10T12:20:28.569Z,5.50
2019-06-10T12:21:26.870Z,6.10
2019-06-10T12:22:26.878Z,6.10
2019-06-10T12:23:26.883Z,6.50
2019-06-10T12:24:26.887Z,5.20
2019-06-10T12:25:35.531Z,5.60
2019-06-10T12:26:26.893Z,5.30
2019-06-10T12:27:26.897Z,7.80
2019-06-10T12:28:26.904Z,5.50
2019-06-10T12:29:26.918Z,5.60
2019-06-10T12:30:26.913Z,6.40
2019-06-10T12:31:26.916Z,6.10
2019-06-10T12:32:26.928Z,6.30
2019-06-10T12:33:26.942Z,6.30
2019-06-10T12:34:26.931Z,5.90
2019-06-10T12:35:26.944Z,5.40
2019-06-10T12:36:26.941Z,6.80
2019-06-10T12:37:26.947Z,6.10
2019-06-10T12:38:26.948Z,8.20
2019-06-10T12:39:26.957Z,6.10
2019-06-10T12:40:26.965Z,5.40
2019-06-10T12:41:27.578Z,5.60
2019-06-10T12:42:26.968Z,5.70
2019-06-10T12:43:26.975Z,5.30
2019-06-10T12:44:26.981Z,5.60
2019-06-10T12:45:27.027Z,5.20
2019-06-10T12:46:26.987Z,5.50
2019-06-10T12:47:26.991Z,5.60
2019-06-10T12:48:26.999Z,5.90
2019-06-10T12:49:27.003Z,5.20
2019-06-10T12:50:27.010Z,5.70
2019-06-10T12:51:27.020Z,5.40
2019-06-10T12:52:27.019Z,6.20
2019-06-10T12:53:27.024Z,5.70
2019-06-10T12:54:27.029Z,5.40
2019-06-10T12:55:40.214Z,5.80
2019-06-10T12:56:27.039Z,6.90
2019-06-10T12:57:27.048Z,5.60
2019-06-10T12:58:27.579Z,5.60
2019-06-10T12:59:27.161Z,5.40
2019-06-10T13:00:27.061Z,6.40
2019-06-10T13:01:27.067Z,5.20
2019-06-10T13:02:31.451Z,6.60
2019-06-10T13:03:27.076Z,5.10
2019-06-10T13:04:27.084Z,5.40
2019-06-10T13:05:27.095Z,6.50
2019-06-10T13:06:27.096Z,5.80
2019-06-10T13:07:27.095Z,5.70
2019-06-10T13:08:27.101Z,5.80
2019-06-10T13:09:27.105Z,6.10
2019-06-10T13:10:27.109Z,6.90
2019-06-10T13:11:27.147Z,5.60
2019-06-10T13:12:27.124Z,5.10
2019-06-10T13:13:27.126Z,5.30
2019-06-10T13:14:27.133Z,5.50
2019-06-10T13:15:27.137Z,5.30
2019-06-10T13:16:27.220Z,5.10
2019-06-10T13:17:27.149Z,6.20
2019-06-10T13:18:27.152Z,6.40